sensor_id;sensor_type;location;lat;lon;timestamp;P1;durP1;ratioP1;P2;durP2;ratioP2
36351;SDS011;22382;44.768;17.206;2023-12-22T00:01:34;10.25;;;5.32;;
36351;SDS011;22382;44.768;17.206;2023-12-22T00:04:02;8.00;;;4.10;;
36351;SDS011;22382;44.768;17.206;2023-12-22T00:06:32;6.05;;;3.60;;
36351;SDS011;22382;44.768;17.206;2023-12-22T00:08:59;6.50;;;3.38;;
36351;SDS011;22382;44.768;17.206;2023-12-22T00:11:26;3.80;;;2.50;;
36351;SDS011;22382;44.768;17.206;2023-12-22T00:13:54;3.45;;;2.05;;
36351;SDS011;22382;44.768;17.206;2023-12-22T00:16:21;6.47;;;2.13;;
36351;SDS011;22382;44.768;17.206;2023-12-22T00:18:48;4.18;;;2.30;;
36351;SDS011;22382;44.768;17.206;2023-12-22T00:21:15;3.90;;;2.22;;
36351;SDS011;22382;44.768;17.206;2023-12-22T00:23:43;3.55;;;2.17;;
36351;SDS011;22382;44.768;17.206;2023-12-22T00:26:10;2.65;;;1.95;;
36351;SDS011;22382;44.768;17.206;2023-12-22T00:28:37;6.15;;;2.35;;
36351;SDS011;22382;44.768;17.206;2023-12-22T00:31:05;5.78;;;2.13;;
36351;SDS011;22382;44.768;17.206;2023-12-22T00:33:33;4.43;;;2.47;;
36351;SDS011;22382;44.768;17.206;2023-12-22T00:36:00;3.85;;;1.83;;
36351;SDS011;22382;44.768;17.206;2023-12-22T00:38:27;2.80;;;1.83;;
36351;SDS011;22382;44.768;17.206;2023-12-22T00:40:55;2.88;;;2.05;;
36351;SDS011;22382;44.768;17.206;2023-12-22T00:43:22;4.82;;;2.60;;
36351;SDS011;22382;44.768;17.206;2023-12-22T00:45:49;6.25;;;2.80;;
36351;SDS011;22382;44.768;17.206;2023-12-22T00:48:16;3.00;;;2.00;;
36351;SDS011;22382;44.768;17.206;2023-12-22T00:50:44;3.17;;;2.15;;
36351;SDS011;22382;44.768;17.206;2023-12-22T00:53:12;3.45;;;2.28;;
36351;SDS011;22382;44.768;17.206;2023-12-22T00:55:39;3.72;;;2.17;;
36351;SDS011;22382;44.768;17.206;2023-12-22T00:58:06;4.78;;;2.03;;
36351;SDS011;22382;44.768;17.206;2023-12-22T01:00:33;3.20;;;1.98;;
36351;SDS011;22382;44.768;17.206;2023-12-22T01:03:00;3.13;;;2.03;;
36351;SDS011;22382;44.768;17.206;2023-12-22T01:05:27;4.97;;;2.15;;
36351;SDS011;22382;44.768;17.206;2023-12-22T01:07:55;4.00;;;2.38;;
36351;SDS011;22382;44.768;17.206;2023-12-22T01:10:22;2.95;;;1.92;;
36351;SDS011;22382;44.768;17.206;2023-12-22T01:12:49;3.95;;;2.05;;
36351;SDS011;22382;44.768;17.206;2023-12-22T01:15:16;3.85;;;2.20;;
36351;SDS011;22382;44.768;17.206;2023-12-22T01:17:43;3.92;;;2.13;;
36351;SDS011;22382;44.768;17.206;2023-12-22T01:20:11;4.18;;;1.80;;
36351;SDS011;22382;44.768;17.206;2023-12-22T01:22:38;4.63;;;2.20;;
36351;SDS011;22382;44.768;17.206;2023-12-22T01:25:06;3.78;;;2.30;;
36351;SDS011;22382;44.768;17.206;2023-12-22T01:27:33;5.03;;;2.47;;
36351;SDS011;22382;44.768;17.206;2023-12-22T01:30:00;3.08;;;2.25;;
36351;SDS011;22382;44.768;17.206;2023-12-22T01:32:27;4.28;;;2.22;;
36351;SDS011;22382;44.768;17.206;2023-12-22T01:35:01;5.10;;;2.28;;
36351;SDS011;22382;44.768;17.206;2023-12-22T01:37:33;3.27;;;2.10;;
36351;SDS011;22382;44.768;17.206;2023-12-22T01:40:00;3.15;;;2.00;;
36351;SDS011;22382;44.768;17.206;2023-12-22T01:42:27;6.40;;;2.15;;
36351;SDS011;22382;44.768;17.206;2023-12-22T01:44:55;5.28;;;2.70;;
36351;SDS011;22382;44.768;17.206;2023-12-22T01:47:22;4.20;;;2.40;;
36351;SDS011;22382;44.768;17.206;2023-12-22T01:49:49;4.03;;;2.22;;
36351;SDS011;22382;44.768;17.206;2023-12-22T01:52:16;2.95;;;2.00;;
36351;SDS011;22382;44.768;17.206;2023-12-22T01:54:44;3.22;;;2.20;;
36351;SDS011;22382;44.768;17.206;2023-12-22T01:57:12;2.60;;;2.03;;
36351;SDS011;22382;44.768;17.206;2023-12-22T01:59:44;3.17;;;2.05;;
36351;SDS011;22382;44.768;17.206;2023-12-22T02:02:13;4.80;;;2.45;;
36351;SDS011;22382;44.768;17.206;2023-12-22T02:04:40;2.60;;;2.08;;
36351;SDS011;22382;44.768;17.206;2023-12-22T02:07:08;5.53;;;2.47;;
36351;SDS011;22382;44.768;17.206;2023-12-22T02:09:37;3.65;;;2.15;;
36351;SDS011;22382;44.768;17.206;2023-12-22T02:12:04;2.83;;;2.00;;
36351;SDS011;22382;44.768;17.206;2023-12-22T02:14:31;5.22;;;2.00;;
36351;SDS011;22382;44.768;17.206;2023-12-22T02:20:09;3.90;;;2.40;;
36351;SDS011;22382;44.768;17.206;2023-12-22T02:22:37;3.33;;;2.30;;
36351;SDS011;22382;44.768;17.206;2023-12-22T02:25:05;5.05;;;2.40;;
36351;SDS011;22382;44.768;17.206;2023-12-22T02:27:40;4.63;;;2.28;;
36351;SDS011;22382;44.768;17.206;2023-12-22T02:30:23;3.10;;;2.30;;
36351;SDS011;22382;44.768;17.206;2023-12-22T02:33:10;4.07;;;2.45;;
36351;SDS011;22382;44.768;17.206;2023-12-22T02:35:41;4.75;;;3.30;;
36351;SDS011;22382;44.768;17.206;2023-12-22T02:38:10;6.53;;;3.17;;
36351;SDS011;22382;44.768;17.206;2023-12-22T02:40:39;4.82;;;3.13;;
36351;SDS011;22382;44.768;17.206;2023-12-22T02:43:07;6.60;;;3.53;;
36351;SDS011;22382;44.768;17.206;2023-12-22T02:45:36;5.85;;;3.33;;
36351;SDS011;22382;44.768;17.206;2023-12-22T02:48:03;6.47;;;3.30;;
36351;SDS011;22382;44.768;17.206;2023-12-22T02:50:31;5.00;;;2.83;;
36351;SDS011;22382;44.768;17.206;2023-12-22T02:52:58;4.72;;;3.17;;
36351;SDS011;22382;44.768;17.206;2023-12-22T02:55:25;3.92;;;2.88;;
36351;SDS011;22382;44.768;17.206;2023-12-22T02:57:52;3.75;;;2.95;;
36351;SDS011;22382;44.768;17.206;2023-12-22T03:00:19;6.90;;;3.35;;
36351;SDS011;22382;44.768;17.206;2023-12-22T03:02:47;5.38;;;2.83;;
36351;SDS011;22382;44.768;17.206;2023-12-22T03:05:14;6.07;;;3.72;;
36351;SDS011;22382;44.768;17.206;2023-12-22T03:07:41;4.30;;;3.17;;
36351;SDS011;22382;44.768;17.206;2023-12-22T03:10:08;7.55;;;4.43;;
36351;SDS011;22382;44.768;17.206;2023-12-22T03:12:35;8.25;;;4.00;;
36351;SDS011;22382;44.768;17.206;2023-12-22T03:15:03;6.18;;;3.65;;
36351;SDS011;22382;44.768;17.206;2023-12-22T03:17:31;8.50;;;4.20;;
36351;SDS011;22382;44.768;17.206;2023-12-22T03:19:58;9.00;;;4.75;;
36351;SDS011;22382;44.768;17.206;2023-12-22T03:22:25;7.88;;;4.30;;
36351;SDS011;22382;44.768;17.206;2023-12-22T03:24:52;6.10;;;3.88;;
36351;SDS011;22382;44.768;17.206;2023-12-22T03:27:19;7.72;;;4.50;;
36351;SDS011;22382;44.768;17.206;2023-12-22T03:29:47;7.68;;;4.20;;
36351;SDS011;22382;44.768;17.206;2023-12-22T03:32:14;7.45;;;4.78;;
36351;SDS011;22382;44.768;17.206;2023-12-22T03:34:41;8.98;;;4.43;;
36351;SDS011;22382;44.768;17.206;2023-12-22T03:37:08;5.55;;;3.75;;
36351;SDS011;22382;44.768;17.206;2023-12-22T03:39:35;7.28;;;4.45;;
36351;SDS011;22382;44.768;17.206;2023-12-22T03:42:03;8.85;;;4.95;;
36351;SDS011;22382;44.768;17.206;2023-12-22T03:44:30;16.83;;;7.95;;
36351;SDS011;22382;44.768;17.206;2023-12-22T03:46:57;15.10;;;8.65;;
36351;SDS011;22382;44.768;17.206;2023-12-22T03:49:24;18.08;;;9.80;;
36351;SDS011;22382;44.768;17.206;2023-12-22T03:51:52;18.58;;;10.68;;
36351;SDS011;22382;44.768;17.206;2023-12-22T03:54:19;16.70;;;9.45;;
36351;SDS011;22382;44.768;17.206;2023-12-22T03:56:46;19.35;;;10.80;;
36351;SDS011;22382;44.768;17.206;2023-12-22T03:59:13;17.63;;;10.10;;
36351;SDS011;22382;44.768;17.206;2023-12-22T04:01:40;27.02;;;13.75;;
36351;SDS011;22382;44.768;17.206;2023-12-22T04:04:08;17.02;;;9.93;;
36351;SDS011;22382;44.768;17.206;2023-12-22T04:06:39;16.88;;;9.63;;
36351;SDS011;22382;44.768;17.206;2023-12-22T04:09:06;20.05;;;10.50;;
36351;SDS011;22382;44.768;17.206;2023-12-22T04:11:33;21.88;;;10.27;;
36351;SDS011;22382;44.768;17.206;2023-12-22T04:14:06;15.45;;;9.10;;
36351;SDS011;22382;44.768;17.206;2023-12-22T04:16:34;21.52;;;10.45;;
36351;SDS011;22382;44.768;17.206;2023-12-22T04:19:04;18.95;;;10.65;;
36351;SDS011;22382;44.768;17.206;2023-12-22T04:21:37;15.57;;;9.13;;
36351;SDS011;22382;44.768;17.206;2023-12-22T04:24:04;15.68;;;9.00;;
36351;SDS011;22382;44.768;17.206;2023-12-22T04:26:32;16.73;;;8.52;;
36351;SDS011;22382;44.768;17.206;2023-12-22T04:28:59;15.35;;;9.48;;
36351;SDS011;22382;44.768;17.206;2023-12-22T04:31:26;12.90;;;8.02;;
36351;SDS011;22382;44.768;17.206;2023-12-22T04:33:53;15.05;;;8.15;;
36351;SDS011;22382;44.768;17.206;2023-12-22T04:36:22;13.15;;;8.30;;
36351;SDS011;22382;44.768;17.206;2023-12-22T04:38:49;14.45;;;8.20;;
36351;SDS011;22382;44.768;17.206;2023-12-22T04:41:16;12.48;;;8.15;;
36351;SDS011;22382;44.768;17.206;2023-12-22T04:43:44;15.15;;;8.20;;
36351;SDS011;22382;44.768;17.206;2023-12-22T04:46:11;12.90;;;7.93;;
36351;SDS011;22382;44.768;17.206;2023-12-22T04:48:38;15.27;;;8.85;;
36351;SDS011;22382;44.768;17.206;2023-12-22T04:51:05;13.38;;;8.82;;
36351;SDS011;22382;44.768;17.206;2023-12-22T04:53:33;16.77;;;9.75;;
36351;SDS011;22382;44.768;17.206;2023-12-22T04:56:00;18.08;;;10.20;;
36351;SDS011;22382;44.768;17.206;2023-12-22T04:58:27;18.40;;;9.63;;
36351;SDS011;22382;44.768;17.206;2023-12-22T05:00:55;19.52;;;10.88;;
36351;SDS011;22382;44.768;17.206;2023-12-22T05:03:22;15.82;;;9.30;;
36351;SDS011;22382;44.768;17.206;2023-12-22T05:05:49;21.23;;;11.55;;
36351;SDS011;22382;44.768;17.206;2023-12-22T05:08:17;30.98;;;15.70;;
36351;SDS011;22382;44.768;17.206;2023-12-22T05:10:44;25.60;;;12.07;;
36351;SDS011;22382;44.768;17.206;2023-12-22T05:13:11;22.08;;;12.00;;
36351;SDS011;22382;44.768;17.206;2023-12-22T05:15:38;20.15;;;11.43;;
36351;SDS011;22382;44.768;17.206;2023-12-22T05:18:05;20.33;;;11.32;;
36351;SDS011;22382;44.768;17.206;2023-12-22T05:20:33;22.35;;;12.20;;
36351;SDS011;22382;44.768;17.206;2023-12-22T05:23:01;19.50;;;11.95;;
36351;SDS011;22382;44.768;17.206;2023-12-22T05:25:28;23.13;;;12.77;;
36351;SDS011;22382;44.768;17.206;2023-12-22T05:27:55;23.63;;;12.93;;
36351;SDS011;22382;44.768;17.206;2023-12-22T05:30:23;28.55;;;14.95;;
36351;SDS011;22382;44.768;17.206;2023-12-22T05:32:50;24.55;;;13.90;;
36351;SDS011;22382;44.768;17.206;2023-12-22T05:35:18;24.48;;;12.43;;
36351;SDS011;22382;44.768;17.206;2023-12-22T05:37:45;25.13;;;12.98;;
36351;SDS011;22382;44.768;17.206;2023-12-22T05:40:12;18.17;;;11.38;;
36351;SDS011;22382;44.768;17.206;2023-12-22T05:42:40;25.10;;;12.70;;
36351;SDS011;22382;44.768;17.206;2023-12-22T05:45:07;22.60;;;13.20;;
36351;SDS011;22382;44.768;17.206;2023-12-22T05:47:36;32.22;;;14.63;;
36351;SDS011;22382;44.768;17.206;2023-12-22T05:50:03;31.08;;;17.05;;
36351;SDS011;22382;44.768;17.206;2023-12-22T05:52:31;31.73;;;17.38;;
36351;SDS011;22382;44.768;17.206;2023-12-22T05:54:59;30.15;;;17.42;;
36351;SDS011;22382;44.768;17.206;2023-12-22T05:57:26;36.88;;;19.58;;
36351;SDS011;22382;44.768;17.206;2023-12-22T05:59:53;37.80;;;18.40;;
36351;SDS011;22382;44.768;17.206;2023-12-22T06:02:20;41.00;;;22.55;;
36351;SDS011;22382;44.768;17.206;2023-12-22T06:04:47;35.58;;;18.45;;
36351;SDS011;22382;44.768;17.206;2023-12-22T06:07:15;39.03;;;20.05;;
36351;SDS011;22382;44.768;17.206;2023-12-22T06:09:42;33.65;;;18.95;;
36351;SDS011;22382;44.768;17.206;2023-12-22T06:12:09;30.50;;;17.15;;
36351;SDS011;22382;44.768;17.206;2023-12-22T06:14:39;31.13;;;16.92;;
36351;SDS011;22382;44.768;17.206;2023-12-22T06:17:06;33.47;;;18.50;;
36351;SDS011;22382;44.768;17.206;2023-12-22T06:19:37;30.77;;;17.73;;
36351;SDS011;22382;44.768;17.206;2023-12-22T06:22:04;29.67;;;17.08;;
36351;SDS011;22382;44.768;17.206;2023-12-22T06:24:34;35.65;;;18.15;;
36351;SDS011;22382;44.768;17.206;2023-12-22T06:27:02;32.88;;;21.13;;
36351;SDS011;22382;44.768;17.206;2023-12-22T06:29:29;30.98;;;19.67;;
36351;SDS011;22382;44.768;17.206;2023-12-22T06:31:58;33.70;;;18.77;;
36351;SDS011;22382;44.768;17.206;2023-12-22T06:34:25;29.00;;;17.23;;
36351;SDS011;22382;44.768;17.206;2023-12-22T06:36:52;25.45;;;15.05;;
36351;SDS011;22382;44.768;17.206;2023-12-22T06:39:20;20.88;;;12.65;;
36351;SDS011;22382;44.768;17.206;2023-12-22T06:41:47;22.98;;;13.95;;
36351;SDS011;22382;44.768;17.206;2023-12-22T06:44:14;21.17;;;13.55;;
36351;SDS011;22382;44.768;17.206;2023-12-22T06:46:41;20.80;;;13.93;;
36351;SDS011;22382;44.768;17.206;2023-12-22T06:49:09;20.45;;;12.70;;
36351;SDS011;22382;44.768;17.206;2023-12-22T06:51:36;18.77;;;11.52;;
36351;SDS011;22382;44.768;17.206;2023-12-22T06:54:04;18.73;;;11.82;;
36351;SDS011;22382;44.768;17.206;2023-12-22T06:56:34;22.27;;;12.15;;
36351;SDS011;22382;44.768;17.206;2023-12-22T06:59:01;19.92;;;12.30;;
36351;SDS011;22382;44.768;17.206;2023-12-22T07:01:35;18.52;;;12.50;;
36351;SDS011;22382;44.768;17.206;2023-12-22T07:04:03;23.85;;;14.60;;
36351;SDS011;22382;44.768;17.206;2023-12-22T07:06:32;20.20;;;13.18;;
36351;SDS011;22382;44.768;17.206;2023-12-22T07:11:40;18.38;;;11.77;;
36351;SDS011;22382;44.768;17.206;2023-12-22T07:14:08;24.85;;;14.68;;
36351;SDS011;22382;44.768;17.206;2023-12-22T07:16:37;25.40;;;14.35;;
36351;SDS011;22382;44.768;17.206;2023-12-22T07:19:05;24.73;;;14.60;;
36351;SDS011;22382;44.768;17.206;2023-12-22T07:21:33;21.42;;;14.00;;
36351;SDS011;22382;44.768;17.206;2023-12-22T07:24:00;23.67;;;16.10;;
36351;SDS011;22382;44.768;17.206;2023-12-22T07:26:28;27.08;;;15.77;;
36351;SDS011;22382;44.768;17.206;2023-12-22T07:28:55;24.55;;;15.90;;
36351;SDS011;22382;44.768;17.206;2023-12-22T07:31:22;21.75;;;12.80;;
36351;SDS011;22382;44.768;17.206;2023-12-22T07:33:50;10.38;;;5.60;;
36351;SDS011;22382;44.768;17.206;2023-12-22T07:36:17;12.18;;;7.72;;
36351;SDS011;22382;44.768;17.206;2023-12-22T07:38:46;14.45;;;8.43;;
36351;SDS011;22382;44.768;17.206;2023-12-22T07:41:14;17.35;;;9.18;;
36351;SDS011;22382;44.768;17.206;2023-12-22T07:43:42;26.48;;;15.27;;
36351;SDS011;22382;44.768;17.206;2023-12-22T07:46:16;15.23;;;9.20;;
36351;SDS011;22382;44.768;17.206;2023-12-22T07:48:44;8.73;;;5.53;;
36351;SDS011;22382;44.768;17.206;2023-12-22T07:51:12;9.95;;;6.07;;
36351;SDS011;22382;44.768;17.206;2023-12-22T07:53:39;14.20;;;7.57;;
36351;SDS011;22382;44.768;17.206;2023-12-22T07:56:08;11.95;;;5.82;;
36351;SDS011;22382;44.768;17.206;2023-12-22T07:58:38;14.25;;;7.30;;
36351;SDS011;22382;44.768;17.206;2023-12-22T08:01:06;11.48;;;6.88;;
36351;SDS011;22382;44.768;17.206;2023-12-22T08:03:33;12.25;;;7.55;;
36351;SDS011;22382;44.768;17.206;2023-12-22T08:06:00;17.70;;;9.32;;
36351;SDS011;22382;44.768;17.206;2023-12-22T08:08:28;16.77;;;9.05;;
36351;SDS011;22382;44.768;17.206;2023-12-22T08:10:55;17.58;;;10.23;;
36351;SDS011;22382;44.768;17.206;2023-12-22T08:13:23;27.52;;;13.02;;
36351;SDS011;22382;44.768;17.206;2023-12-22T08:15:50;22.17;;;13.30;;
36351;SDS011;22382;44.768;17.206;2023-12-22T08:18:17;27.23;;;15.60;;
36351;SDS011;22382;44.768;17.206;2023-12-22T08:20:45;22.67;;;13.73;;
36351;SDS011;22382;44.768;17.206;2023-12-22T08:23:15;22.75;;;14.48;;
36351;SDS011;22382;44.768;17.206;2023-12-22T08:25:43;17.52;;;10.38;;
36351;SDS011;22382;44.768;17.206;2023-12-22T08:28:12;12.80;;;8.10;;
36351;SDS011;22382;44.768;17.206;2023-12-22T08:30:40;12.23;;;7.70;;
36351;SDS011;22382;44.768;17.206;2023-12-22T08:33:07;11.93;;;7.97;;
36351;SDS011;22382;44.768;17.206;2023-12-22T08:35:35;11.60;;;7.78;;
36351;SDS011;22382;44.768;17.206;2023-12-22T08:38:02;11.10;;;7.22;;
36351;SDS011;22382;44.768;17.206;2023-12-22T08:40:30;10.70;;;6.00;;
36351;SDS011;22382;44.768;17.206;2023-12-22T08:42:58;16.13;;;10.60;;
36351;SDS011;22382;44.768;17.206;2023-12-22T08:45:28;37.05;;;21.23;;
36351;SDS011;22382;44.768;17.206;2023-12-22T08:47:56;36.15;;;22.55;;
36351;SDS011;22382;44.768;17.206;2023-12-22T08:50:24;43.38;;;24.23;;
36351;SDS011;22382;44.768;17.206;2023-12-22T08:52:51;37.58;;;22.52;;
36351;SDS011;22382;44.768;17.206;2023-12-22T08:55:19;31.55;;;19.40;;
36351;SDS011;22382;44.768;17.206;2023-12-22T08:57:46;32.38;;;19.05;;
36351;SDS011;22382;44.768;17.206;2023-12-22T09:00:25;27.52;;;17.58;;
36351;SDS011;22382;44.768;17.206;2023-12-22T09:02:52;28.70;;;16.63;;
36351;SDS011;22382;44.768;17.206;2023-12-22T09:05:20;20.55;;;14.02;;
36351;SDS011;22382;44.768;17.206;2023-12-22T09:07:48;22.83;;;14.85;;
36351;SDS011;22382;44.768;17.206;2023-12-22T09:10:16;24.33;;;16.02;;
36351;SDS011;22382;44.768;17.206;2023-12-22T09:12:44;24.90;;;15.57;;
36351;SDS011;22382;44.768;17.206;2023-12-22T09:15:11;27.17;;;15.95;;
36351;SDS011;22382;44.768;17.206;2023-12-22T09:17:39;21.17;;;15.30;;
36351;SDS011;22382;44.768;17.206;2023-12-22T09:20:10;26.55;;;17.38;;
36351;SDS011;22382;44.768;17.206;2023-12-22T09:22:38;28.88;;;18.83;;
36351;SDS011;22382;44.768;17.206;2023-12-22T09:25:06;26.45;;;17.10;;
36351;SDS011;22382;44.768;17.206;2023-12-22T09:27:35;29.73;;;18.92;;
36351;SDS011;22382;44.768;17.206;2023-12-22T09:30:03;32.10;;;20.25;;
36351;SDS011;22382;44.768;17.206;2023-12-22T09:32:33;31.80;;;19.48;;
36351;SDS011;22382;44.768;17.206;2023-12-22T09:35:01;32.97;;;18.10;;
36351;SDS011;22382;44.768;17.206;2023-12-22T09:37:29;26.77;;;16.65;;
36351;SDS011;22382;44.768;17.206;2023-12-22T09:39:56;34.95;;;23.42;;
36351;SDS011;22382;44.768;17.206;2023-12-22T09:42:24;45.03;;;28.27;;
36351;SDS011;22382;44.768;17.206;2023-12-22T09:44:53;57.53;;;33.20;;
36351;SDS011;22382;44.768;17.206;2023-12-22T09:47:22;44.97;;;27.15;;
36351;SDS011;22382;44.768;17.206;2023-12-22T09:49:51;48.20;;;28.67;;
36351;SDS011;22382;44.768;17.206;2023-12-22T09:52:19;49.60;;;28.95;;
36351;SDS011;22382;44.768;17.206;2023-12-22T09:54:47;61.78;;;35.90;;
36351;SDS011;22382;44.768;17.206;2023-12-22T09:57:15;53.92;;;30.88;;
36351;SDS011;22382;44.768;17.206;2023-12-22T09:59:53;47.78;;;28.30;;
36351;SDS011;22382;44.768;17.206;2023-12-22T10:02:22;33.80;;;20.70;;
36351;SDS011;22382;44.768;17.206;2023-12-22T10:04:54;34.83;;;22.00;;
36351;SDS011;22382;44.768;17.206;2023-12-22T10:07:21;38.42;;;20.40;;
36351;SDS011;22382;44.768;17.206;2023-12-22T10:09:48;19.90;;;10.80;;
36351;SDS011;22382;44.768;17.206;2023-12-22T10:12:17;13.13;;;6.88;;
36351;SDS011;22382;44.768;17.206;2023-12-22T10:14:46;17.02;;;9.88;;
36351;SDS011;22382;44.768;17.206;2023-12-22T10:17:14;16.65;;;8.93;;
36351;SDS011;22382;44.768;17.206;2023-12-22T10:19:43;15.82;;;9.68;;
36351;SDS011;22382;44.768;17.206;2023-12-22T10:22:10;15.02;;;8.52;;
36351;SDS011;22382;44.768;17.206;2023-12-22T10:24:47;11.35;;;7.53;;
36351;SDS011;22382;44.768;17.206;2023-12-22T10:27:14;8.10;;;5.10;;
36351;SDS011;22382;44.768;17.206;2023-12-22T10:29:55;9.95;;;5.60;;
36351;SDS011;22382;44.768;17.206;2023-12-22T10:32:23;7.18;;;4.60;;
36351;SDS011;22382;44.768;17.206;2023-12-22T10:34:53;7.38;;;4.60;;
36351;SDS011;22382;44.768;17.206;2023-12-22T10:39:53;5.45;;;3.20;;
36351;SDS011;22382;44.768;17.206;2023-12-22T10:42:21;4.32;;;2.70;;
36351;SDS011;22382;44.768;17.206;2023-12-22T10:44:50;3.55;;;2.33;;
36351;SDS011;22382;44.768;17.206;2023-12-22T10:47:18;4.47;;;3.08;;
36351;SDS011;22382;44.768;17.206;2023-12-22T10:49:48;4.68;;;2.20;;
36351;SDS011;22382;44.768;17.206;2023-12-22T10:52:16;3.53;;;2.17;;
36351;SDS011;22382;44.768;17.206;2023-12-22T10:54:44;2.63;;;1.60;;
36351;SDS011;22382;44.768;17.206;2023-12-22T10:57:12;3.28;;;1.38;;
36351;SDS011;22382;44.768;17.206;2023-12-22T10:59:40;2.35;;;1.40;;
36351;SDS011;22382;44.768;17.206;2023-12-22T11:02:17;2.17;;;1.38;;
36351;SDS011;22382;44.768;17.206;2023-12-22T11:05:01;3.67;;;1.73;;
36351;SDS011;22382;44.768;17.206;2023-12-22T11:07:33;2.42;;;1.30;;
36351;SDS011;22382;44.768;17.206;2023-12-22T11:10:03;3.50;;;1.70;;
36351;SDS011;22382;44.768;17.206;2023-12-22T11:12:37;3.05;;;2.00;;
36351;SDS011;22382;44.768;17.206;2023-12-22T11:15:05;7.85;;;4.07;;
36351;SDS011;22382;44.768;17.206;2023-12-22T11:17:34;4.90;;;2.78;;
36351;SDS011;22382;44.768;17.206;2023-12-22T11:20:06;4.88;;;2.55;;
36351;SDS011;22382;44.768;17.206;2023-12-22T11:22:36;3.80;;;2.20;;
36351;SDS011;22382;44.768;17.206;2023-12-22T11:25:05;5.50;;;2.70;;
36351;SDS011;22382;44.768;17.206;2023-12-22T11:27:37;4.03;;;2.30;;
36351;SDS011;22382;44.768;17.206;2023-12-22T11:30:05;4.65;;;2.63;;
36351;SDS011;22382;44.768;17.206;2023-12-22T11:32:35;4.13;;;2.17;;
36351;SDS011;22382;44.768;17.206;2023-12-22T11:35:03;4.93;;;2.65;;
36351;SDS011;22382;44.768;17.206;2023-12-22T11:37:31;6.10;;;3.03;;
36351;SDS011;22382;44.768;17.206;2023-12-22T11:40:02;4.78;;;2.95;;
36351;SDS011;22382;44.768;17.206;2023-12-22T11:42:30;5.70;;;3.10;;
36351;SDS011;22382;44.768;17.206;2023-12-22T11:45:04;4.93;;;2.35;;
36351;SDS011;22382;44.768;17.206;2023-12-22T11:47:32;10.10;;;5.45;;
36351;SDS011;22382;44.768;17.206;2023-12-22T11:50:01;10.73;;;5.53;;
36351;SDS011;22382;44.768;17.206;2023-12-22T11:52:28;17.90;;;7.80;;
36351;SDS011;22382;44.768;17.206;2023-12-22T11:54:56;10.43;;;5.35;;
36351;SDS011;22382;44.768;17.206;2023-12-22T11:59:57;11.40;;;5.40;;
36351;SDS011;22382;44.768;17.206;2023-12-22T12:02:25;7.88;;;4.30;;
36351;SDS011;22382;44.768;17.206;2023-12-22T12:04:53;8.50;;;4.15;;
36351;SDS011;22382;44.768;17.206;2023-12-22T12:07:37;4.55;;;2.70;;
36351;SDS011;22382;44.768;17.206;2023-12-22T12:10:06;7.20;;;4.03;;
36351;SDS011;22382;44.768;17.206;2023-12-22T12:12:35;5.25;;;3.80;;
36351;SDS011;22382;44.768;17.206;2023-12-22T12:15:06;5.85;;;2.95;;
36351;SDS011;22382;44.768;17.206;2023-12-22T12:17:43;5.43;;;3.50;;
36351;SDS011;22382;44.768;17.206;2023-12-22T12:20:10;5.97;;;3.70;;
36351;SDS011;22382;44.768;17.206;2023-12-22T12:22:38;5.75;;;3.78;;
36351;SDS011;22382;44.768;17.206;2023-12-22T12:25:10;6.75;;;3.97;;
36351;SDS011;22382;44.768;17.206;2023-12-22T12:30:38;6.90;;;3.80;;
36351;SDS011;22382;44.768;17.206;2023-12-22T12:33:11;6.38;;;3.58;;
36351;SDS011;22382;44.768;17.206;2023-12-22T12:35:40;7.10;;;4.43;;
36351;SDS011;22382;44.768;17.206;2023-12-22T12:38:16;7.00;;;4.40;;
36351;SDS011;22382;44.768;17.206;2023-12-22T12:40:46;5.65;;;3.67;;
36351;SDS011;22382;44.768;17.206;2023-12-22T12:43:17;5.40;;;3.35;;
36351;SDS011;22382;44.768;17.206;2023-12-22T12:45:45;6.68;;;4.25;;
36351;SDS011;22382;44.768;17.206;2023-12-22T12:48:15;7.53;;;4.25;;
36351;SDS011;22382;44.768;17.206;2023-12-22T12:50:46;7.32;;;4.63;;
36351;SDS011;22382;44.768;17.206;2023-12-22T12:53:13;8.68;;;3.60;;
36351;SDS011;22382;44.768;17.206;2023-12-22T12:55:41;9.80;;;3.65;;
36351;SDS011;22382;44.768;17.206;2023-12-22T12:58:08;6.20;;;3.67;;
36351;SDS011;22382;44.768;17.206;2023-12-22T13:00:35;14.73;;;4.10;;
36351;SDS011;22382;44.768;17.206;2023-12-22T13:03:04;12.98;;;4.53;;
36351;SDS011;22382;44.768;17.206;2023-12-22T13:05:33;6.93;;;3.97;;
36351;SDS011;22382;44.768;17.206;2023-12-22T13:08:10;5.40;;;3.40;;
36351;SDS011;22382;44.768;17.206;2023-12-22T13:10:39;3.80;;;2.45;;
36351;SDS011;22382;44.768;17.206;2023-12-22T13:13:08;5.70;;;2.97;;
36351;SDS011;22382;44.768;17.206;2023-12-22T13:15:36;4.43;;;2.85;;
36351;SDS011;22382;44.768;17.206;2023-12-22T13:18:07;8.10;;;3.50;;
36351;SDS011;22382;44.768;17.206;2023-12-22T13:20:35;8.27;;;3.55;;
36351;SDS011;22382;44.768;17.206;2023-12-22T13:23:03;9.48;;;5.63;;
36351;SDS011;22382;44.768;17.206;2023-12-22T13:25:40;6.38;;;3.17;;
36351;SDS011;22382;44.768;17.206;2023-12-22T13:28:07;6.10;;;3.40;;
36351;SDS011;22382;44.768;17.206;2023-12-22T13:30:35;7.43;;;4.25;;
36351;SDS011;22382;44.768;17.206;2023-12-22T13:33:05;16.40;;;10.43;;
36351;SDS011;22382;44.768;17.206;2023-12-22T13:35:33;16.75;;;9.10;;
36351;SDS011;22382;44.768;17.206;2023-12-22T13:38:08;18.35;;;9.73;;
36351;SDS011;22382;44.768;17.206;2023-12-22T13:40:37;13.55;;;6.72;;
36351;SDS011;22382;44.768;17.206;2023-12-22T13:43:05;18.63;;;9.93;;
36351;SDS011;22382;44.768;17.206;2023-12-22T13:45:34;19.58;;;11.82;;
36351;SDS011;22382;44.768;17.206;2023-12-22T13:48:02;20.58;;;12.23;;
36351;SDS011;22382;44.768;17.206;2023-12-22T13:50:30;22.23;;;12.55;;
36351;SDS011;22382;44.768;17.206;2023-12-22T13:53:01;17.65;;;11.88;;
36351;SDS011;22382;44.768;17.206;2023-12-22T13:55:34;21.10;;;13.05;;
36351;SDS011;22382;44.768;17.206;2023-12-22T13:58:06;20.13;;;12.35;;
36351;SDS011;22382;44.768;17.206;2023-12-22T14:00:34;19.60;;;12.25;;
36351;SDS011;22382;44.768;17.206;2023-12-22T14:03:01;23.25;;;14.35;;
36351;SDS011;22382;44.768;17.206;2023-12-22T14:05:29;19.60;;;13.63;;
36351;SDS011;22382;44.768;17.206;2023-12-22T14:08:01;19.75;;;12.07;;
36351;SDS011;22382;44.768;17.206;2023-12-22T14:10:30;20.13;;;12.55;;
36351;SDS011;22382;44.768;17.206;2023-12-22T14:12:57;16.33;;;11.45;;
36351;SDS011;22382;44.768;17.206;2023-12-22T14:15:25;16.13;;;10.07;;
36351;SDS011;22382;44.768;17.206;2023-12-22T14:18:07;12.60;;;7.83;;
36351;SDS011;22382;44.768;17.206;2023-12-22T14:20:35;8.13;;;4.95;;
36351;SDS011;22382;44.768;17.206;2023-12-22T14:23:02;6.40;;;4.22;;
36351;SDS011;22382;44.768;17.206;2023-12-22T14:25:30;7.88;;;4.40;;
36351;SDS011;22382;44.768;17.206;2023-12-22T14:27:58;7.22;;;4.60;;
36351;SDS011;22382;44.768;17.206;2023-12-22T14:30:25;6.30;;;4.15;;
36351;SDS011;22382;44.768;17.206;2023-12-22T14:32:53;6.95;;;4.50;;
36351;SDS011;22382;44.768;17.206;2023-12-22T14:35:21;10.10;;;5.20;;
36351;SDS011;22382;44.768;17.206;2023-12-22T14:37:48;9.13;;;4.82;;
36351;SDS011;22382;44.768;17.206;2023-12-22T14:40:16;8.65;;;5.00;;
36351;SDS011;22382;44.768;17.206;2023-12-22T14:42:43;10.95;;;6.03;;
36351;SDS011;22382;44.768;17.206;2023-12-22T14:45:10;10.93;;;7.07;;